Map

Track Data

SID SEASON NUMBER BASIN SUBBASIN NAME ISO_TIME NATURE LAT LON WMO_WIND WMO_PRES WMO_AGENCY TRACK_TYPE DIST2LAND LANDFALL IFLAG USA_AGENCY USA_ATCF_ID USA_LAT USA_LON USA_RECORD USA_STATUS USA_WIND USA_PRES USA_SSHS USA_R34_NE USA_R34_SE USA_R34_SW USA_R34_NW USA_R50_NE USA_R50_SE USA_R50_SW USA_R50_NW USA_R64_NE USA_R64_SE USA_R64_SW USA_R64_NW USA_POCI USA_ROCI USA_RMW USA_EYE TOKYO_LAT TOKYO_LON TOKYO_GRADE TOKYO_WIND TOKYO_PRES TOKYO_R50_DIR TOKYO_R50_LONG TOKYO_R50_SHORT TOKYO_R30_DIR TOKYO_R30_LONG TOKYO_R30_SHORT TOKYO_LAND CMA_LAT CMA_LON CMA_CAT CMA_WIND CMA_PRES HKO_LAT HKO_LON HKO_CAT HKO_WIND HKO_PRES NEWDELHI_LAT NEWDELHI_LON NEWDELHI_GRADE NEWDELHI_WIND NEWDELHI_PRES NEWDELHI_CI NEWDELHI_DP NEWDELHI_POCI REUNION_LAT REUNION_LON REUNION_TYPE REUNION_WIND REUNION_PRES REUNION_TNUM REUNION_CI REUNION_RMW REUNION_R34_NE REUNION_R34_SE REUNION_R34_SW REUNION_R34_NW REUNION_R50_NE REUNION_R50_SE REUNION_R50_SW REUNION_R50_NW REUNION_R64_NE REUNION_R64_SE REUNION_R64_SW REUNION_R64_NW BOM_LAT BOM_LON BOM_TYPE BOM_WIND BOM_PRES BOM_TNUM BOM_CI BOM_RMW BOM_R34_NE BOM_R34_SE BOM_R34_SW BOM_R34_NW BOM_R50_NE BOM_R50_SE BOM_R50_SW BOM_R50_NW BOM_R64_NE BOM_R64_SE BOM_R64_SW BOM_R64_NW BOM_ROCI BOM_POCI BOM_EYE BOM_POS_METHOD BOM_PRES_METHOD NADI_LAT NADI_LON NADI_CAT NADI_WIND NADI_PRES WELLINGTON_LAT WELLINGTON_LON WELLINGTON_WIND WELLINGTON_PRES DS824_LAT DS824_LON DS824_STAGE DS824_WIND DS824_PRES TD9636_LAT TD9636_LON TD9636_STAGE TD9636_WIND TD9636_PRES TD9635_LAT TD9635_LON TD9635_WIND TD9635_PRES TD9635_ROCI NEUMANN_LAT NEUMANN_LON NEUMANN_CLASS NEUMANN_WIND NEUMANN_PRES MLC_LAT MLC_LON MLC_CLASS MLC_WIND MLC_PRES USA_GUST BOM_GUST BOM_GUST_PER REUNION_GUST REUNION_GUST_PER USA_SEAHGT USA_SEARAD_NE USA_SEARAD_SE USA_SEARAD_SW USA_SEARAD_NW STORM_SPEED STORM_DIR
1913022S13139 1913 11 SP EA NOT_NAMED 1913-01-21 23:00:00 NR -13.2000 139.200 main 257 257 __________O___ -1 -13.2000 139.200 7 2 103
1913022S13139 1913 11 SP EA NOT_NAMED 1913-01-22 00:00:00 NR -13.2089 139.231 main 257 250 __________P___ -1 -13.2089 139.231 7 2 106
1913022S13139 1913 11 SP EA NOT_NAMED 1913-01-22 03:00:00 NR -13.2354 139.327 main 250 236 __________P___ -1 -13.2354 139.327 7 2 104
1913022S13139 1913 11 SP EA NOT_NAMED 1913-01-22 06:00:00 NR -13.2610 139.440 main 236 216 __________P___ -1 -13.2610 139.440 7 3 101
1913022S13139 1913 11 SP EA NOT_NAMED 1913-01-22 09:00:00 NR -13.2851 139.583 main 216 205 __________P___ -1 -13.2851 139.583 7 3 99
1913022S13139 1913 11 SP EA NOT_NAMED 1913-01-22 11:00:00 NR -13.3000 139.700 main 205 195 __________O___ -1 -13.3000 139.700 7 4 97
1913022S13139 1913 11 SP EA NOT_NAMED 1913-01-22 12:00:00 NR -13.3070 139.767 main 195 174 __________P___ -1 -13.3070 139.767 7 4 95
1913022S13139 1913 11 SP EA NOT_NAMED 1913-01-22 15:00:00 NR -13.3276 140.001 main 174 142 __________P___ -1 -13.3276 140.001 7 5 95
1913022S13139 1913 11 SP EA NOT_NAMED 1913-01-22 18:00:00 NR -13.3500 140.290 main 142 108 __________P___ -1 -13.3500 140.290 7 6 95
1913022S13139 1913 11 SP EA NOT_NAMED 1913-01-22 21:00:00 NR -13.3773 140.636 main 108 76 __________P___ -1 -13.3773 140.636 7 7 95
1913022S13139 1913 11 SP EA NOT_NAMED 1913-01-22 23:00:00 NR -13.4000 140.900 main 76 65 __________O___ -1 -13.4000 140.900 7 8 95
1913022S13139 1913 11 SP EA NOT_NAMED 1913-01-23 00:00:00 NR -13.4121 141.039 main 65 10 __________P___ -1 -13.4121 141.039 7 9 95
1913022S13139 1913 11 SP EA NOT_NAMED 1913-01-23 03:00:00 NR -13.4535 141.498 main 10 0 __________P___ -1 -13.4535 141.498 7 9 95
1913022S13139 1913 11 SP EA NOT_NAMED 1913-01-23 06:00:00 NR -13.5022 142.006 main 0 0 __________P___ -1 -13.5022 142.006 7 10 96
1913022S13139 1913 11 SP EA NOT_NAMED 1913-01-23 09:00:00 NR -13.5583 142.540 main 0 0 __________P___ -1 -13.5583 142.540 7 11 96
1913022S13139 1913 11 SP EA NOT_NAMED 1913-01-23 11:00:00 NR -13.6000 142.900 main 0 0 __________O___ -1 -13.6000 142.900 7 10 97
1913022S13139 1913 11 SP EA NOT_NAMED 1913-01-23 12:00:00 NR -13.6164 143.057 main 0 0 __________P___ -1 -13.6164 143.057 7 9 96
1913022S13139 1913 11 SP EA NOT_NAMED 1913-01-23 15:00:00 NR -13.6690 143.528 main 0 0 __________P___ -1 -13.6690 143.528 7 9 97
1913022S13139 1913 11 SP EA NOT_NAMED 1913-01-23 18:00:00 NR -13.7348 144.024 main 46 46 __________P___ -1 -13.7348 144.024 7 10 99
1913022S13139 1913 11 SP EA NOT_NAMED 1913-01-23 21:00:00 NR -13.8235 144.579 main 57 49 __________P___ -1 -13.8235 144.579 7 12 100
1913022S13139 1913 11 SP EA NOT_NAMED 1913-01-23 23:00:00 NR -13.9000 145.000 main 70 70 __________O___ -1 -13.9000 145.000 7 13 101
1913022S13139 1913 11 SP EA NOT_NAMED 1913-01-24 00:00:00 NR -13.9460 145.224 main 85 85 __________P___ -1 -13.9460 145.224 7 14 103
1913022S13139 1913 11 SP EA NOT_NAMED 1913-01-24 03:00:00 NR -14.1064 145.957 main 124 124 __________P___ -1 -14.1064 145.957 7 15 103
1913022S13139 1913 11 SP EA NOT_NAMED 1913-01-24 06:00:00 NR -14.2887 146.774 main 179 179 __________P___ -1 -14.2887 146.774 7 17 103
1913022S13139 1913 11 SP EA NOT_NAMED 1913-01-24 09:00:00 NR -14.4777 147.667 main 262 262 __________P___ -1 -14.4777 147.667 7 18 102
1913022S13139 1913 11 SP EA NOT_NAMED 1913-01-24 11:00:00 NR -14.6000 148.300 main 321 321 __________O___ -1 -14.6000 148.300 7 19 101
1913022S13139 1913 11 SP EA NOT_NAMED 1913-01-24 12:00:00 NR -14.6585 148.626 main 350 350 __________P___ -1 -14.6585 148.626 7 20 100
1913022S13139 1913 11 SP EA NOT_NAMED 1913-01-24 15:00:00 NR -14.8229 149.640 main 454 454 __________P___ -1 -14.8229 149.640 7 20 99
1913022S13139 1913 11 SP EA NOT_NAMED 1913-01-24 18:00:00 NR -14.9729 150.694 main 482 482 __________P___ -1 -14.9729 150.694 7 21 98
1913022S13139 1913 11 SP EA NOT_NAMED 1913-01-24 21:00:00 NR -15.1119 151.773 main 515 515 __________P___ -1 -15.1119 151.773 7 21 97
1913022S13139 1913 11 SP EA NOT_NAMED 1913-01-24 23:00:00 NR -15.2000 152.500 main 550 __________O___ -1 -15.2000 152.500 7 21 97

Digital Typhoon Data and Search

About IBTrACS Database

This database is a web-friendly format of International Best Track Archive for Climate Stewardship (IBTrACS), a global best track data archive curated by NOAA dating back to 1842.

Updated: 2021-11-26